createdAt,value
2017-10-22T13:34:42.360Z,1028.82
2017-10-22T13:35:43.209Z,1028.74
2017-10-22T13:36:43.847Z,1028.73
2017-10-22T13:37:44.483Z,1028.75
2017-10-22T13:38:45.122Z,1028.75
2017-10-22T13:39:45.758Z,1028.72
2017-10-22T13:40:46.411Z,1028.79
2017-10-22T13:41:47.050Z,1028.71
2017-10-22T13:42:47.687Z,1028.70
2017-10-22T13:43:48.529Z,1028.65
2017-10-22T13:44:49.171Z,1028.73
2017-10-22T13:45:49.857Z,1028.70
2017-10-22T13:46:50.500Z,1028.68
2017-10-22T13:47:51.135Z,1028.68
2017-10-22T13:48:51.776Z,1028.65
2017-10-22T13:49:52.417Z,1028.64
2017-10-22T13:50:53.054Z,1028.57
2017-10-22T13:51:53.899Z,1028.55
2017-10-22T13:52:54.534Z,1028.52
2017-10-22T13:53:55.173Z,1028.48
2017-10-22T13:54:55.812Z,1028.46
2017-10-22T13:55:56.457Z,1028.45
2017-10-22T13:56:57.092Z,1028.41
2017-10-22T13:57:57.737Z,1028.39
2017-10-22T13:58:58.386Z,1028.38
2017-10-22T13:59:59.223Z,1028.34
2017-10-22T14:00:59.867Z,1028.33
2017-10-22T14:02:00.508Z,1028.34
2017-10-22T14:03:01.145Z,1028.37
2017-10-22T14:04:01.783Z,1028.36
2017-10-22T14:05:02.426Z,1028.26
2017-10-22T14:06:03.064Z,1028.32
2017-10-22T14:07:03.706Z,1028.30
2017-10-22T14:08:04.551Z,1028.41
2017-10-22T14:09:05.199Z,1028.35
2017-10-22T14:10:05.839Z,1028.26
2017-10-22T14:11:06.476Z,1028.24
2017-10-22T14:12:07.120Z,1028.27
2017-10-22T14:13:07.762Z,1028.27
2017-10-22T14:14:08.408Z,1028.26
2017-10-22T14:15:09.051Z,1028.24
2017-10-22T14:16:09.700Z,1028.31
2017-10-22T14:17:10.574Z,1028.27
2017-10-22T14:18:11.186Z,1028.18
2017-10-22T14:19:11.838Z,1028.22
2017-10-22T14:20:12.485Z,1028.20
2017-10-22T14:21:13.134Z,1028.14
2017-10-22T14:22:13.773Z,1028.10
2017-10-22T14:23:14.429Z,1028.18
2017-10-22T14:24:15.069Z,1028.24
2017-10-22T14:26:32.265Z,1028.19
2017-10-22T14:27:32.918Z,1028.26
2017-10-22T14:29:35.209Z,1028.27
2017-10-22T14:30:35.856Z,1028.24
2017-10-22T14:31:36.506Z,1028.29
2017-10-22T14:32:37.162Z,1028.32
2017-10-22T14:34:54.358Z,1028.22
2017-10-22T14:35:55.009Z,1028.27
2017-10-22T14:36:55.656Z,1028.29
2017-10-22T14:37:56.310Z,1028.24
2017-10-22T14:38:57.014Z,1028.27
2017-10-22T14:39:57.669Z,1028.29
2017-10-22T14:40:58.322Z,1028.20
2017-10-22T14:41:59.170Z,1028.29
2017-10-22T14:42:59.832Z,1028.30
2017-10-22T14:44:00.491Z,1028.30
2017-10-22T14:45:01.132Z,1028.22
2017-10-22T14:46:01.784Z,1028.23
2017-10-22T14:47:02.434Z,1028.23
2017-10-22T14:48:03.091Z,1028.25
2017-10-22T14:49:03.742Z,1028.14
2017-10-22T14:50:04.595Z,1028.10
2017-10-22T14:51:05.246Z,1028.18
2017-10-22T14:52:05.899Z,1028.05
2017-10-22T14:53:06.551Z,1028.04
2017-10-22T14:54:07.201Z,1028.09
2017-10-22T14:55:07.853Z,1028.14
2017-10-22T14:56:08.505Z,1028.11
2017-10-22T14:57:09.156Z,1028.09
2017-10-22T14:58:10.010Z,1028.04
2017-10-22T14:59:10.665Z,1028.08
2017-10-22T15:00:11.313Z,1028.10
2017-10-22T15:01:11.967Z,1028.02
2017-10-22T15:02:12.616Z,1028.07
2017-10-22T15:03:13.273Z,1028.08
2017-10-22T15:04:13.926Z,1028.05
2017-10-22T15:05:14.579Z,1028.01
2017-10-22T15:06:15.381Z,1028.05
2017-10-22T15:07:16.032Z,1027.92
2017-10-22T15:08:16.689Z,1027.98
2017-10-22T15:09:17.352Z,1028.03
2017-10-22T15:10:18.051Z,1028.04
2017-10-22T15:11:18.706Z,1028.04
2017-10-22T15:12:19.360Z,1027.96
2017-10-22T15:13:20.008Z,1028.00
2017-10-22T15:14:20.660Z,1027.98
2017-10-22T15:15:21.517Z,1027.93
2017-10-22T15:16:22.170Z,1027.89
2017-10-22T15:17:22.818Z,1027.83
2017-10-22T15:18:23.473Z,1027.90
2017-10-22T15:19:24.125Z,1027.98
2017-10-22T15:20:24.780Z,1027.93
2017-10-22T15:21:25.425Z,1027.92
2017-10-22T15:22:26.076Z,1027.85
2017-10-22T15:23:26.879Z,1027.87
2017-10-22T15:24:27.529Z,1027.94
2017-10-22T15:25:28.180Z,1027.88
2017-10-22T15:26:28.840Z,1027.94
2017-10-22T15:27:29.490Z,1027.86
2017-10-22T15:28:30.141Z,1027.90
2017-10-22T15:29:30.786Z,1027.93
2017-10-22T15:30:31.440Z,1027.88
2017-10-22T15:31:32.286Z,1027.92
2017-10-22T15:32:32.939Z,1027.90
2017-10-22T15:33:33.894Z,1027.96
2017-10-22T15:34:34.550Z,1027.92
2017-10-22T15:35:35.205Z,1027.86
2017-10-22T15:36:35.852Z,1027.95
2017-10-22T15:37:36.502Z,1027.93
2017-10-22T15:38:37.157Z,1027.89
2017-10-22T15:39:37.807Z,1027.92
2017-10-22T15:40:38.453Z,1027.87
2017-10-22T15:41:39.252Z,1027.85
2017-10-22T15:42:39.904Z,1027.77
2017-10-22T15:43:40.554Z,1027.85
2017-10-22T15:44:41.203Z,1027.75
2017-10-22T15:45:41.854Z,1027.76
2017-10-22T15:46:42.508Z,1027.78
2017-10-22T15:47:43.165Z,1027.80
2017-10-22T15:48:43.812Z,1027.71
2017-10-22T15:49:44.463Z,1027.81
2017-10-22T15:50:45.309Z,1027.71
2017-10-22T15:51:45.964Z,1027.77
2017-10-22T15:52:46.613Z,1027.76
2017-10-22T15:53:47.261Z,1027.69
2017-10-22T15:54:47.910Z,1027.71
2017-10-22T15:55:48.559Z,1027.73
2017-10-22T15:56:49.210Z,1027.78
2017-10-22T15:57:49.859Z,1027.77
2017-10-22T15:58:50.711Z,1027.88
2017-10-22T15:59:51.360Z,1027.78
2017-10-22T16:00:52.016Z,1027.82
2017-10-22T16:01:52.668Z,1027.83
2017-10-22T16:02:53.313Z,1027.76
2017-10-22T16:03:53.964Z,1027.85
2017-10-22T16:04:54.619Z,1027.81
2017-10-22T16:05:55.272Z,1027.78
2017-10-22T16:06:56.126Z,1027.73
2017-10-22T16:07:56.775Z,1027.80
2017-10-22T16:08:57.422Z,1027.84
2017-10-22T16:09:58.074Z,1027.84
2017-10-22T16:10:58.732Z,1027.78
2017-10-22T16:11:59.381Z,1027.72
2017-10-22T16:13:00.030Z,1027.68
2017-10-22T16:14:00.681Z,1027.67
2017-10-22T16:15:01.481Z,1027.74
2017-10-22T16:16:02.126Z,1027.76
2017-10-22T16:17:04.189Z,1027.75
2017-10-22T16:18:04.844Z,1027.78
2017-10-22T16:19:06.519Z,1027.71
2017-10-22T16:20:07.140Z,1027.75
2017-10-22T16:21:07.783Z,1027.74
2017-10-22T16:22:08.439Z,1027.68
2017-10-22T16:23:09.081Z,1027.71
2017-10-22T16:24:10.033Z,1027.70
2017-10-22T16:25:10.686Z,1027.73
2017-10-22T16:26:11.331Z,1027.74
2017-10-22T16:27:11.976Z,1027.74
2017-10-22T16:28:12.631Z,1027.82
2017-10-22T16:29:13.283Z,1027.89
2017-10-22T16:30:13.940Z,1027.92
2017-10-22T16:31:14.581Z,1027.95
2017-10-22T16:32:15.387Z,1027.98
2017-10-22T16:33:16.033Z,1027.93
2017-10-22T16:34:16.686Z,1027.93
2017-10-22T16:35:17.331Z,1027.93
2017-10-22T16:36:17.974Z,1027.93
2017-10-22T16:37:18.622Z,1027.88
2017-10-22T16:38:19.273Z,1027.85
2017-10-22T16:39:19.919Z,1027.84
2017-10-22T16:40:20.761Z,1027.82
2017-10-22T16:41:21.411Z,1027.85
2017-10-22T16:42:22.055Z,1027.84
2017-10-22T16:43:22.709Z,1027.77
2017-10-22T16:44:23.351Z,1027.83
2017-10-22T16:45:24.347Z,1027.81
2017-10-22T16:46:24.998Z,1027.78
2017-10-22T16:47:25.644Z,1027.81
2017-10-22T16:48:26.440Z,1027.78
2017-10-22T16:49:27.083Z,1027.73
2017-10-22T16:50:27.727Z,1027.79
2017-10-22T16:51:28.386Z,1027.74
2017-10-22T16:52:29.033Z,1027.79
2017-10-22T16:53:29.676Z,1027.82
2017-10-22T16:54:30.318Z,1027.75
2017-10-22T16:55:30.959Z,1027.86
2017-10-22T16:56:31.959Z,1027.81
2017-10-22T16:57:32.604Z,1027.82
2017-10-22T16:58:33.246Z,1027.84
2017-10-22T16:59:33.890Z,1027.89
2017-10-22T17:00:34.536Z,1027.88
2017-10-22T17:01:36.695Z,1027.98
2017-10-22T17:02:38.202Z,1027.97
2017-10-22T17:03:38.878Z,1027.99
2017-10-22T17:04:40.473Z,1027.91
2017-10-22T17:05:41.323Z,1027.89
2017-10-22T17:06:41.960Z,1027.82
2017-10-22T17:07:42.602Z,1027.97
2017-10-22T17:08:44.361Z,1027.98
2017-10-22T17:09:44.954Z,1027.92
2017-10-22T17:10:45.597Z,1027.97
2017-10-22T17:11:46.252Z,1027.94
2017-10-22T17:12:46.886Z,1027.90
2017-10-22T17:13:47.817Z,1027.92
2017-10-22T17:14:48.480Z,1027.92
2017-10-22T17:15:50.415Z,1027.93
2017-10-22T17:16:51.243Z,1027.97
2017-10-22T17:17:51.886Z,1027.97
2017-10-22T17:18:52.523Z,1027.99
2017-10-22T17:19:53.216Z,1027.99
2017-10-22T17:20:54.853Z,1028.05
2017-10-22T17:21:56.633Z,1028.06
2017-10-22T17:22:57.323Z,1027.99
2017-10-22T17:23:58.373Z,1028.05
2017-10-22T17:24:59.247Z,1028.03
2017-10-22T17:25:59.895Z,1028.03
2017-10-22T17:27:00.783Z,1028.05
2017-10-22T17:28:01.689Z,1028.07
2017-10-22T17:29:04.270Z,1028.06
2017-10-22T17:30:06.845Z,1028.06
2017-10-22T17:31:07.493Z,1028.08
2017-10-22T17:32:08.180Z,1028.04
2017-10-22T17:33:08.821Z,1028.08
2017-10-22T17:34:09.469Z,1028.03
2017-10-22T17:35:10.107Z,1028.10
2017-10-22T17:37:26.182Z,1028.10
2017-10-22T17:38:28.140Z,1028.16
2017-10-22T17:39:29.190Z,1028.18
2017-10-22T17:40:36.045Z,1028.11
2017-10-22T17:41:36.681Z,1028.19
2017-10-22T17:42:39.570Z,1028.18
2017-10-22T17:43:40.157Z,1028.19
2017-10-22T17:44:40.835Z,1028.15
2017-10-22T17:45:41.550Z,1028.28
2017-10-22T17:46:42.794Z,1028.19
2017-10-22T17:47:43.394Z,1028.18
2017-10-22T17:48:44.017Z,1028.12
2017-10-22T17:49:44.653Z,1028.15
2017-10-22T17:50:45.300Z,1028.17
2017-10-22T17:51:45.954Z,1028.17
2017-10-22T17:52:46.715Z,1028.15
2017-10-22T18:17:18.393Z,1028.53
2017-10-22T18:18:19.028Z,1028.58
2017-10-22T18:19:19.664Z,1028.65
2017-10-22T18:20:20.299Z,1028.63
2017-10-22T18:21:20.998Z,1028.55
2017-10-22T18:22:21.626Z,1028.60
2017-10-22T18:24:22.854Z,1028.62
2017-10-22T18:25:23.724Z,1028.69
2017-10-22T18:29:12.108Z,1028.68
2017-10-22T18:30:12.762Z,1028.67
2017-10-22T18:31:13.447Z,1028.68
2017-10-22T18:32:14.083Z,1028.77
2017-10-22T18:33:14.765Z,1028.74
2017-10-22T18:34:15.569Z,1028.83
2017-10-22T18:35:16.250Z,1028.80
2017-10-22T18:36:16.919Z,1028.73
2017-10-22T18:37:18.513Z,1028.75
2017-10-22T18:38:19.155Z,1028.76
2017-10-22T18:39:20.205Z,1028.76
2017-10-22T18:40:20.787Z,1028.77
2017-10-22T18:41:21.426Z,1028.67
2017-10-22T18:42:22.557Z,1028.69
2017-10-22T18:43:23.194Z,1028.68
2017-10-22T18:44:23.844Z,1028.67
2017-10-22T18:45:24.515Z,1028.72
2017-10-22T18:46:25.167Z,1028.70
2017-10-22T18:47:25.799Z,1028.64
2017-10-22T18:48:26.433Z,1028.63
2017-10-22T18:49:27.068Z,1028.64
2017-10-22T18:50:28.121Z,1028.62
2017-10-22T18:51:28.806Z,1028.59
2017-10-22T18:52:29.446Z,1028.60
2017-10-22T18:53:30.084Z,1028.60
2017-10-22T18:54:30.719Z,1028.69
2017-10-22T18:55:32.731Z,1028.66
2017-10-22T18:56:33.314Z,1028.64
2017-10-22T18:57:33.944Z,1028.57
2017-10-22T18:58:34.729Z,1028.62
2017-10-22T18:59:35.362Z,1028.53
2017-10-22T19:00:35.997Z,1028.62
2017-10-22T19:01:36.630Z,1028.61
2017-10-22T19:02:37.270Z,1028.61
2017-10-22T19:03:37.907Z,1028.60
2017-10-22T19:04:38.545Z,1028.60
2017-10-22T19:05:39.176Z,1028.60
2017-10-22T19:06:40.025Z,1028.54
2017-10-22T19:07:40.658Z,1028.56
2017-10-22T19:08:41.293Z,1028.56
2017-10-22T19:09:41.930Z,1028.56
2017-10-22T19:10:42.581Z,1028.51
2017-10-22T19:11:43.222Z,1028.47
2017-10-22T19:12:43.853Z,1028.52
2017-10-22T19:13:44.541Z,1028.48
2017-10-22T19:14:45.206Z,1028.56
2017-10-22T19:15:46.042Z,1028.47
2017-10-22T19:16:46.671Z,1028.52
2017-10-22T19:17:47.317Z,1028.60
2017-10-22T19:18:47.944Z,1028.62
2017-10-22T19:19:48.576Z,1028.69
2017-10-22T19:20:49.216Z,1028.63
2017-10-22T19:21:49.853Z,1028.62
2017-10-22T19:22:50.509Z,1028.66
2017-10-22T19:23:51.292Z,1028.67
2017-10-22T19:24:51.936Z,1028.70
2017-10-22T19:25:52.600Z,1028.60
2017-10-22T19:26:53.231Z,1028.63
2017-10-22T19:27:53.864Z,1028.71
2017-10-22T19:28:54.499Z,1028.65
2017-10-22T19:29:55.144Z,1028.70
2017-10-22T19:30:55.807Z,1028.71
2017-10-22T19:31:56.646Z,1028.70
2017-10-22T19:32:57.283Z,1028.68
2017-10-22T19:33:57.913Z,1028.69
2017-10-22T19:34:58.557Z,1028.75
2017-10-22T19:35:59.197Z,1028.68
2017-10-22T19:36:59.826Z,1028.69
2017-10-22T19:38:00.461Z,1028.66
2017-10-22T19:39:01.094Z,1028.75
2017-10-22T19:40:01.951Z,1028.69
2017-10-22T19:41:02.583Z,1028.68
2017-10-22T19:42:03.217Z,1028.65
2017-10-22T19:43:03.850Z,1028.68
2017-10-22T19:44:04.483Z,1028.68
2017-10-22T19:45:05.121Z,1028.76
2017-10-22T19:46:05.754Z,1028.69
2017-10-22T19:47:06.395Z,1028.69
2017-10-22T19:48:07.111Z,1028.72
2017-10-22T19:49:07.949Z,1028.79
2017-10-22T19:50:08.584Z,1028.78
2017-10-22T19:51:09.220Z,1028.78
2017-10-22T19:52:09.886Z,1028.75
2017-10-22T19:53:10.522Z,1028.66
2017-10-22T19:54:11.160Z,1028.80
2017-10-22T19:55:11.807Z,1028.64
2017-10-22T19:56:12.450Z,1028.70
2017-10-22T19:57:13.285Z,1028.70
2017-10-22T19:58:13.920Z,1028.67
2017-10-22T19:59:14.551Z,1028.67
2017-10-22T20:00:15.226Z,1028.65
2017-10-22T20:01:15.866Z,1028.68
2017-10-22T20:02:16.495Z,1028.68
2017-10-22T20:03:17.143Z,1028.78
2017-10-22T20:04:17.771Z,1028.70
2017-10-22T20:05:18.609Z,1028.71
2017-10-22T20:06:19.245Z,1028.69
2017-10-22T20:07:19.879Z,1028.71
2017-10-22T20:08:20.541Z,1028.71
2017-10-22T20:09:21.172Z,1028.71
2017-10-22T20:10:21.811Z,1028.64
2017-10-22T20:11:22.445Z,1028.76
2017-10-22T20:12:23.100Z,1028.73
2017-10-22T20:13:23.885Z,1028.71
2017-10-22T20:14:24.553Z,1028.74
2017-10-22T20:15:25.190Z,1028.72
2017-10-22T20:16:25.824Z,1028.65
2017-10-22T20:17:26.405Z,1028.65
2017-10-22T20:18:27.118Z,1028.70
2017-10-22T20:19:27.753Z,1028.70
2017-10-22T20:20:28.390Z,1028.73
2017-10-22T20:21:29.239Z,1028.68
2017-10-22T20:22:29.877Z,1028.66
2017-10-22T20:23:30.507Z,1028.60
2017-10-22T20:24:31.168Z,1028.65
2017-10-22T20:25:31.807Z,1028.60
2017-10-22T20:26:32.446Z,1028.65
2017-10-22T20:27:33.081Z,1028.62
2017-10-22T20:28:33.715Z,1028.74
2017-10-22T20:29:34.347Z,1028.59
2017-10-22T20:30:35.189Z,1028.60
2017-10-22T20:31:35.820Z,1028.63
2017-10-22T20:32:36.495Z,1028.66
2017-10-22T20:33:37.125Z,1028.60
2017-10-22T20:34:37.760Z,1028.58
2017-10-22T20:35:38.423Z,1028.55
2017-10-22T20:36:39.083Z,1028.58
2017-10-22T20:37:39.754Z,1028.60
2017-10-22T20:38:40.726Z,1028.55
2017-10-22T20:39:41.370Z,1028.53
2017-10-22T20:40:42.001Z,1028.53
2017-10-22T20:41:42.664Z,1028.51
2017-10-22T20:42:43.298Z,1028.56
2017-10-22T20:43:43.937Z,1028.58
2017-10-22T20:44:44.571Z,1028.53
2017-10-22T20:45:45.234Z,1028.56
2017-10-22T20:46:46.017Z,1028.55
2017-10-22T20:47:46.654Z,1028.59
2017-10-22T20:48:47.288Z,1028.56
2017-10-22T20:49:47.924Z,1028.55
2017-10-22T20:50:48.556Z,1028.46
2017-10-22T20:51:49.191Z,1028.52
2017-10-22T20:52:49.830Z,1028.37
2017-10-22T20:53:50.466Z,1028.50
2017-10-22T20:54:51.448Z,1028.50
2017-10-22T20:55:52.089Z,1028.45
2017-10-22T20:56:52.728Z,1028.44
2017-10-22T20:57:53.373Z,1028.43
2017-10-22T20:58:54.012Z,1028.43
2017-10-22T20:59:54.648Z,1028.52
2017-10-22T21:00:55.285Z,1028.45
2017-10-22T21:01:55.915Z,1028.48
2017-10-22T21:02:56.559Z,1028.56
2017-10-22T21:03:57.650Z,1028.53
2017-10-22T21:04:58.276Z,1028.52
2017-10-22T21:05:58.914Z,1028.49
2017-10-22T21:06:59.555Z,1028.50
2017-10-22T21:08:00.183Z,1028.56
2017-10-22T21:09:00.816Z,1028.48
2017-10-22T21:10:01.451Z,1028.49
2017-10-22T21:11:02.087Z,1028.50
2017-10-22T21:12:02.925Z,1028.51
2017-10-22T21:13:03.556Z,1028.53
2017-10-22T21:14:04.197Z,1028.56
2017-10-22T21:15:04.829Z,1028.52
2017-10-22T21:16:05.468Z,1028.62
2017-10-22T21:17:06.098Z,1028.61
2017-10-22T21:18:06.736Z,1028.55
2017-10-22T21:19:07.368Z,1028.59
2017-10-22T21:20:08.157Z,1028.61
2017-10-22T21:21:08.796Z,1028.62
2017-10-22T21:22:09.430Z,1028.59
2017-10-22T21:23:10.066Z,1028.54
2017-10-22T21:24:10.709Z,1028.56
2017-10-22T21:25:11.340Z,1028.58
2017-10-22T21:26:11.983Z,1028.56
2017-10-22T21:27:12.616Z,1028.50
2017-10-22T21:28:13.457Z,1028.48
2017-10-22T21:29:14.081Z,1028.51
2017-10-22T21:30:14.720Z,1028.54
2017-10-22T21:31:15.354Z,1028.58
2017-10-22T21:32:15.985Z,1028.48
2017-10-22T21:33:16.626Z,1028.57
2017-10-22T21:34:17.259Z,1028.53
2017-10-22T21:35:17.891Z,1028.52
2017-10-22T21:36:18.675Z,1028.45
2017-10-22T21:37:19.316Z,1028.43
2017-10-22T21:38:19.949Z,1028.47
2017-10-22T21:39:20.580Z,1028.38
2017-10-22T21:40:21.221Z,1028.45
2017-10-22T21:41:21.850Z,1028.43
2017-10-22T21:42:22.486Z,1028.35
2017-10-22T21:43:23.128Z,1028.35
2017-10-22T21:44:23.764Z,1028.40
2017-10-22T21:45:24.600Z,1028.38
2017-10-22T21:46:25.231Z,1028.39
2017-10-22T21:47:25.862Z,1028.45
2017-10-22T21:48:26.505Z,1028.46
2017-10-22T21:49:27.139Z,1028.42
2017-10-22T21:50:27.770Z,1028.48
2017-10-22T21:51:28.404Z,1028.42
2017-10-22T21:52:29.046Z,1028.37
2017-10-22T21:53:29.878Z,1028.34
2017-10-22T21:54:30.514Z,1028.34
2017-10-22T21:55:31.146Z,1028.31
2017-10-22T21:56:31.780Z,1028.27
2017-10-22T21:57:32.420Z,1028.24
2017-10-22T21:58:33.049Z,1028.30
2017-10-22T21:59:33.684Z,1028.23
2017-10-22T22:00:34.329Z,1028.27
2017-10-22T22:01:35.159Z,1028.24
2017-10-22T22:02:35.792Z,1028.20
2017-10-22T22:03:36.431Z,1028.17
2017-10-22T22:04:37.061Z,1028.16
2017-10-22T22:05:37.700Z,1028.16
2017-10-22T22:06:38.336Z,1028.02
2017-10-22T22:07:38.974Z,1028.13
2017-10-22T22:08:39.614Z,1028.10
2017-10-22T22:09:40.446Z,1028.16
2017-10-22T22:10:41.079Z,1028.15
2017-10-22T22:11:41.769Z,1028.15
2017-10-22T22:12:42.457Z,1028.12
2017-10-22T22:13:43.086Z,1028.10
2017-10-22T22:14:43.719Z,1028.07
2017-10-22T22:15:44.353Z,1028.13
2017-10-22T22:16:44.987Z,1028.07
2017-10-22T22:17:45.619Z,1028.16
2017-10-22T22:18:46.403Z,1028.14
2017-10-22T22:19:47.042Z,1028.09
2017-10-22T22:20:47.678Z,1028.17
2017-10-22T22:21:48.309Z,1028.17
2017-10-22T22:22:48.945Z,1028.11
2017-10-22T22:23:49.577Z,1028.19
2017-10-22T22:24:50.207Z,1028.13
2017-10-22T22:25:50.851Z,1028.16
2017-10-22T22:26:51.693Z,1028.18
2017-10-22T22:27:52.318Z,1028.21
2017-10-22T22:28:52.960Z,1028.16
2017-10-22T22:29:53.594Z,1028.23
2017-10-22T22:30:54.231Z,1028.22
2017-10-22T22:31:54.860Z,1028.13
2017-10-22T22:32:55.494Z,1028.19
2017-10-22T22:33:56.134Z,1028.19
2017-10-22T22:34:56.925Z,1028.15
2017-10-22T22:35:57.560Z,1028.22
2017-10-22T22:36:58.190Z,1028.16
2017-10-22T22:37:58.831Z,1028.17
2017-10-22T22:38:59.461Z,1028.13
2017-10-22T22:40:00.145Z,1028.16
2017-10-22T22:41:00.785Z,1028.11
2017-10-22T22:42:01.420Z,1028.08
2017-10-22T22:43:02.252Z,1028.05
2017-10-22T22:44:02.891Z,1028.10
2017-10-22T22:45:03.525Z,1028.09
2017-10-22T22:46:04.159Z,1028.17
2017-10-22T22:47:04.799Z,1028.23
2017-10-22T22:48:05.427Z,1028.14
2017-10-22T22:49:06.060Z,1028.17
2017-10-22T22:50:06.698Z,1028.17
2017-10-22T22:51:07.581Z,1028.18
2017-10-22T22:52:08.215Z,1028.18
2017-10-22T22:53:08.851Z,1028.20
2017-10-22T22:54:09.492Z,1028.21
2017-10-22T22:55:10.123Z,1028.21
2017-10-22T22:56:10.753Z,1028.26
2017-10-22T22:57:11.390Z,1028.18
2017-10-22T22:58:12.021Z,1028.17
2017-10-22T22:59:12.660Z,1028.16
2017-10-22T23:00:13.496Z,1028.13
2017-10-22T23:01:14.133Z,1028.14
2017-10-22T23:02:14.774Z,1028.13
2017-10-22T23:03:15.403Z,1028.19
2017-10-22T23:04:16.090Z,1028.17
2017-10-22T23:05:16.717Z,1028.16
2017-10-22T23:06:17.353Z,1028.25
2017-10-22T23:07:17.989Z,1028.17
2017-10-22T23:08:18.830Z,1028.14
2017-10-22T23:09:19.470Z,1028.13
2017-10-22T23:10:20.105Z,1028.23
2017-10-22T23:11:20.737Z,1028.15
2017-10-22T23:12:21.376Z,1028.20
2017-10-22T23:13:22.019Z,1028.24
2017-10-22T23:14:22.648Z,1028.23
2017-10-22T23:15:23.282Z,1028.22
2017-10-22T23:16:24.122Z,1028.26
2017-10-22T23:17:24.752Z,1028.22
2017-10-22T23:18:25.382Z,1028.18
2017-10-22T23:19:26.020Z,1028.25
2017-10-22T23:20:26.652Z,1028.21
2017-10-22T23:21:27.293Z,1028.27
2017-10-22T23:22:27.978Z,1028.21
2017-10-22T23:23:28.612Z,1028.23
2017-10-22T23:24:29.392Z,1028.18
2017-10-22T23:25:30.025Z,1028.09
2017-10-22T23:26:30.662Z,1028.12
2017-10-22T23:27:31.298Z,1028.14
2017-10-22T23:28:31.927Z,1028.13
2017-10-22T23:29:32.561Z,1028.07
2017-10-22T23:30:33.201Z,1028.06
2017-10-22T23:31:33.835Z,1028.11
2017-10-22T23:32:34.464Z,1027.98
2017-10-22T23:33:35.348Z,1028.01
2017-10-22T23:34:35.984Z,1027.93
2017-10-22T23:35:36.620Z,1027.92
2017-10-22T23:36:37.250Z,1027.94
2017-10-22T23:37:37.884Z,1027.92
2017-10-22T23:38:38.522Z,1027.89
2017-10-22T23:39:39.154Z,1027.90
2017-10-22T23:40:39.786Z,1027.90
2017-10-22T23:41:40.569Z,1027.97
2017-10-22T23:42:41.213Z,1027.89
2017-10-22T23:43:41.844Z,1027.83
2017-10-22T23:44:42.481Z,1027.83
2017-10-22T23:45:43.116Z,1027.81
2017-10-22T23:46:43.751Z,1027.71
2017-10-22T23:47:44.386Z,1027.73
2017-10-22T23:48:45.019Z,1027.76
2017-10-22T23:49:45.901Z,1027.75
2017-10-22T23:50:46.533Z,1027.82
2017-10-22T23:51:47.167Z,1027.68
2017-10-22T23:52:47.802Z,1027.76
2017-10-22T23:53:48.440Z,1027.78
2017-10-22T23:54:49.075Z,1027.74
2017-10-22T23:55:49.709Z,1027.70
2017-10-22T23:56:50.340Z,1027.77
2017-10-22T23:57:51.123Z,1027.65
2017-10-22T23:58:51.761Z,1027.68
2017-10-22T23:59:52.398Z,1027.70
